sensor_id;sensor_type;location;lat;lon;timestamp;pressure;altitude;pressure_sealevel;temperature;humidity
43683;BME280;29285;52.128;21.060;2023-08-06T00:00:20;99214.39;;;20.88;100.00
43683;BME280;29285;52.128;21.060;2023-08-06T00:05:42;99213.81;;;20.89;100.00
43683;BME280;29285;52.128;21.060;2023-08-06T00:10:44;99203.23;;;20.77;100.00
43683;BME280;29285;52.128;21.060;2023-08-06T00:15:46;99196.61;;;20.76;100.00
43683;BME280;29285;52.128;21.060;2023-08-06T00:20:47;99216.75;;;20.64;100.00
43683;BME280;29285;52.128;21.060;2023-08-06T00:25:49;99224.19;;;20.39;100.00
43683;BME280;29285;52.128;21.060;2023-08-06T00:30:54;99216.59;;;20.26;100.00
43683;BME280;29285;52.128;21.060;2023-08-06T00:35:58;99209.02;;;20.09;100.00
43683;BME280;29285;52.128;21.060;2023-08-06T00:41:00;99194.34;;;19.97;100.00
43683;BME280;29285;52.128;21.060;2023-08-06T00:46:01;99193.94;;;19.93;100.00
43683;BME280;29285;52.128;21.060;2023-08-06T00:51:03;99177.27;;;19.90;100.00
43683;BME280;29285;52.128;21.060;2023-08-06T00:56:06;99161.98;;;19.97;100.00
43683;BME280;29285;52.128;21.060;2023-08-06T01:01:08;99147.70;;;20.12;100.00
43683;BME280;29285;52.128;21.060;2023-08-06T01:06:10;99138.23;;;20.23;100.00
43683;BME280;29285;52.128;21.060;2023-08-06T01:11:36;99124.24;;;20.40;100.00
43683;BME280;29285;52.128;21.060;2023-08-06T01:16:40;99106.74;;;20.56;100.00
43683;BME280;29285;52.128;21.060;2023-08-06T01:21:42;99084.92;;;20.62;100.00
43683;BME280;29285;52.128;21.060;2023-08-06T01:27:17;99051.13;;;20.71;100.00
43683;BME280;29285;52.128;21.060;2023-08-06T01:32:15;99023.42;;;20.83;100.00
43683;BME280;29285;52.128;21.060;2023-08-06T01:37:17;99002.95;;;20.85;100.00
43683;BME280;29285;52.128;21.060;2023-08-06T01:42:19;98986.27;;;20.87;100.00
43683;BME280;29285;52.128;21.060;2023-08-06T01:47:21;98977.55;;;20.90;100.00
43683;BME280;29285;52.128;21.060;2023-08-06T01:52:22;98971.29;;;20.89;100.00
43683;BME280;29285;52.128;21.060;2023-08-06T01:57:24;98972.36;;;20.89;100.00
43683;BME280;29285;52.128;21.060;2023-08-06T02:02:26;98971.19;;;20.93;100.00
43683;BME280;29285;52.128;21.060;2023-08-06T02:07:28;98970.36;;;20.96;100.00
43683;BME280;29285;52.128;21.060;2023-08-06T02:12:30;98962.09;;;20.96;100.00
43683;BME280;29285;52.128;21.060;2023-08-06T02:17:31;98950.80;;;20.96;100.00
43683;BME280;29285;52.128;21.060;2023-08-06T02:22:33;98936.45;;;21.01;100.00
43683;BME280;29285;52.128;21.060;2023-08-06T02:27:35;98938.45;;;21.02;100.00
43683;BME280;29285;52.128;21.060;2023-08-06T02:32:36;98932.14;;;21.02;100.00
43683;BME280;29285;52.128;21.060;2023-08-06T02:37:38;98931.23;;;21.03;100.00
43683;BME280;29285;52.128;21.060;2023-08-06T02:42:40;98924.25;;;21.00;100.00
43683;BME280;29285;52.128;21.060;2023-08-06T02:47:41;98920.85;;;21.00;100.00
43683;BME280;29285;52.128;21.060;2023-08-06T02:52:43;98918.41;;;21.00;100.00
43683;BME280;29285;52.128;21.060;2023-08-06T02:57:44;98908.65;;;20.99;100.00
43683;BME280;29285;52.128;21.060;2023-08-06T03:02:46;98895.79;;;21.01;100.00
43683;BME280;29285;52.128;21.060;2023-08-06T03:07:48;98882.08;;;21.09;100.00
43683;BME280;29285;52.128;21.060;2023-08-06T03:12:49;98874.20;;;21.15;100.00
43683;BME280;29285;52.128;21.060;2023-08-06T03:17:51;98850.13;;;21.20;100.00
43683;BME280;29285;52.128;21.060;2023-08-06T03:22:53;98840.61;;;21.22;100.00
43683;BME280;29285;52.128;21.060;2023-08-06T03:27:54;98838.70;;;21.21;100.00
43683;BME280;29285;52.128;21.060;2023-08-06T03:32:56;98830.31;;;21.21;100.00
43683;BME280;29285;52.128;21.060;2023-08-06T03:37:57;98817.30;;;21.21;100.00
43683;BME280;29285;52.128;21.060;2023-08-06T03:42:59;98803.33;;;21.19;100.00
43683;BME280;29285;52.128;21.060;2023-08-06T03:48:01;98795.54;;;21.21;100.00
43683;BME280;29285;52.128;21.060;2023-08-06T03:53:02;98777.54;;;21.25;100.00
43683;BME280;29285;52.128;21.060;2023-08-06T03:58:04;98771.94;;;21.21;100.00
43683;BME280;29285;52.128;21.060;2023-08-06T04:03:06;98768.46;;;21.20;100.00
43683;BME280;29285;52.128;21.060;2023-08-06T04:08:08;98754.73;;;21.22;100.00
43683;BME280;29285;52.128;21.060;2023-08-06T04:13:09;98741.14;;;21.22;100.00
43683;BME280;29285;52.128;21.060;2023-08-06T04:18:11;98732.63;;;21.25;100.00
43683;BME280;29285;52.128;21.060;2023-08-06T04:23:13;98737.15;;;21.26;100.00
43683;BME280;29285;52.128;21.060;2023-08-06T04:28:15;98730.39;;;21.26;100.00
43683;BME280;29285;52.128;21.060;2023-08-06T04:33:16;98727.22;;;21.28;100.00
43683;BME280;29285;52.128;21.060;2023-08-06T04:38:18;98708.24;;;21.24;100.00
43683;BME280;29285;52.128;21.060;2023-08-06T04:43:20;98697.83;;;21.24;100.00
43683;BME280;29285;52.128;21.060;2023-08-06T04:48:22;98690.61;;;21.28;100.00
43683;BME280;29285;52.128;21.060;2023-08-06T04:53:24;98684.97;;;21.32;100.00
43683;BME280;29285;52.128;21.060;2023-08-06T04:58:25;98682.27;;;21.35;100.00
43683;BME280;29285;52.128;21.060;2023-08-06T05:03:27;98678.89;;;21.41;100.00
43683;BME280;29285;52.128;21.060;2023-08-06T05:08:29;98667.62;;;21.51;100.00
43683;BME280;29285;52.128;21.060;2023-08-06T05:13:31;98658.23;;;21.64;100.00
43683;BME280;29285;52.128;21.060;2023-08-06T05:18:32;98650.38;;;21.75;100.00
43683;BME280;29285;52.128;21.060;2023-08-06T05:23:35;98647.32;;;21.81;100.00
43683;BME280;29285;52.128;21.060;2023-08-06T05:28:37;98646.40;;;21.84;100.00
43683;BME280;29285;52.128;21.060;2023-08-06T05:33:39;98641.75;;;21.87;100.00
43683;BME280;29285;52.128;21.060;2023-08-06T05:38:41;98630.38;;;21.89;100.00
43683;BME280;29285;52.128;21.060;2023-08-06T05:43:43;98621.40;;;22.01;100.00
43683;BME280;29285;52.128;21.060;2023-08-06T05:48:44;98613.02;;;22.17;100.00
43683;BME280;29285;52.128;21.060;2023-08-06T05:53:46;98605.32;;;22.32;100.00
43683;BME280;29285;52.128;21.060;2023-08-06T05:58:48;98604.35;;;22.49;100.00
43683;BME280;29285;52.128;21.060;2023-08-06T06:03:52;98605.94;;;22.64;100.00
43683;BME280;29285;52.128;21.060;2023-08-06T06:08:54;98606.21;;;22.75;100.00
43683;BME280;29285;52.128;21.060;2023-08-06T06:13:56;98602.35;;;22.82;100.00
43683;BME280;29285;52.128;21.060;2023-08-06T06:18:57;98590.71;;;22.89;100.00
43683;BME280;29285;52.128;21.060;2023-08-06T06:23:59;98584.39;;;23.00;100.00
43683;BME280;29285;52.128;21.060;2023-08-06T06:29:01;98579.38;;;23.08;100.00
43683;BME280;29285;52.128;21.060;2023-08-06T06:34:02;98567.84;;;23.21;100.00
43683;BME280;29285;52.128;21.060;2023-08-06T06:39:04;98561.54;;;23.34;100.00
43683;BME280;29285;52.128;21.060;2023-08-06T06:44:06;98557.69;;;23.45;100.00
43683;BME280;29285;52.128;21.060;2023-08-06T06:49:07;98559.94;;;23.48;100.00
43683;BME280;29285;52.128;21.060;2023-08-06T06:54:09;98554.36;;;23.49;100.00
43683;BME280;29285;52.128;21.060;2023-08-06T06:59:10;98553.71;;;23.52;100.00
43683;BME280;29285;52.128;21.060;2023-08-06T07:04:12;98562.30;;;23.57;100.00
43683;BME280;29285;52.128;21.060;2023-08-06T07:09:14;98558.71;;;23.59;100.00
43683;BME280;29285;52.128;21.060;2023-08-06T07:14:15;98552.99;;;23.65;100.00
43683;BME280;29285;52.128;21.060;2023-08-06T07:19:17;98553.99;;;23.73;100.00
43683;BME280;29285;52.128;21.060;2023-08-06T07:24:19;98555.52;;;23.85;100.00
43683;BME280;29285;52.128;21.060;2023-08-06T07:29:21;98550.91;;;23.97;100.00
43683;BME280;29285;52.128;21.060;2023-08-06T07:34:23;98554.54;;;24.09;100.00
43683;BME280;29285;52.128;21.060;2023-08-06T07:39:25;98546.02;;;24.20;100.00
43683;BME280;29285;52.128;21.060;2023-08-06T07:44:27;98551.52;;;24.27;100.00
43683;BME280;29285;52.128;21.060;2023-08-06T07:49:28;98546.47;;;24.28;100.00
43683;BME280;29285;52.128;21.060;2023-08-06T07:54:30;98542.21;;;24.40;100.00
43683;BME280;29285;52.128;21.060;2023-08-06T07:59:32;98537.83;;;24.52;100.00
43683;BME280;29285;52.128;21.060;2023-08-06T08:04:34;98527.59;;;24.58;100.00
43683;BME280;29285;52.128;21.060;2023-08-06T08:09:35;98519.71;;;24.66;100.00
43683;BME280;29285;52.128;21.060;2023-08-06T08:14:37;98511.30;;;24.76;100.00
43683;BME280;29285;52.128;21.060;2023-08-06T08:19:40;98508.06;;;24.87;100.00
43683;BME280;29285;52.128;21.060;2023-08-06T08:24:42;98508.27;;;25.00;100.00
43683;BME280;29285;52.128;21.060;2023-08-06T08:29:43;98510.63;;;25.14;100.00
43683;BME280;29285;52.128;21.060;2023-08-06T08:34:45;98503.98;;;25.25;100.00
43683;BME280;29285;52.128;21.060;2023-08-06T08:39:47;98501.34;;;25.35;100.00
43683;BME280;29285;52.128;21.060;2023-08-06T08:44:48;98498.15;;;25.45;100.00
43683;BME280;29285;52.128;21.060;2023-08-06T08:49:54;98495.52;;;25.55;100.00
43683;BME280;29285;52.128;21.060;2023-08-06T08:54:56;98496.38;;;25.70;100.00
43683;BME280;29285;52.128;21.060;2023-08-06T08:59:58;98482.86;;;25.79;100.00
43683;BME280;29285;52.128;21.060;2023-08-06T09:05:01;98476.48;;;25.82;100.00
43683;BME280;29285;52.128;21.060;2023-08-06T09:10:06;98473.73;;;25.89;100.00
43683;BME280;29285;52.128;21.060;2023-08-06T09:15:11;98475.85;;;26.02;100.00
43683;BME280;29285;52.128;21.060;2023-08-06T09:20:13;98467.77;;;26.12;100.00
43683;BME280;29285;52.128;21.060;2023-08-06T09:25:23;98462.41;;;26.25;100.00
43683;BME280;29285;52.128;21.060;2023-08-06T09:30:34;98458.59;;;26.27;100.00
43683;BME280;29285;52.128;21.060;2023-08-06T09:35:36;98454.63;;;26.28;100.00
43683;BME280;29285;52.128;21.060;2023-08-06T09:40:38;98450.20;;;26.40;100.00
43683;BME280;29285;52.128;21.060;2023-08-06T09:45:40;98445.44;;;26.61;100.00
43683;BME280;29285;52.128;21.060;2023-08-06T09:50:41;98436.30;;;26.74;100.00
43683;BME280;29285;52.128;21.060;2023-08-06T09:55:43;98438.29;;;26.88;100.00
43683;BME280;29285;52.128;21.060;2023-08-06T10:00:46;98428.23;;;26.95;100.00
43683;BME280;29285;52.128;21.060;2023-08-06T10:05:47;98423.39;;;26.88;100.00
43683;BME280;29285;52.128;21.060;2023-08-06T10:10:49;98417.38;;;26.86;100.00
43683;BME280;29285;52.128;21.060;2023-08-06T10:15:51;98407.52;;;26.90;100.00
43683;BME280;29285;52.128;21.060;2023-08-06T10:20:53;98410.92;;;26.97;100.00
43683;BME280;29285;52.128;21.060;2023-08-06T10:25:55;98401.04;;;26.98;100.00
43683;BME280;29285;52.128;21.060;2023-08-06T10:30:57;98401.98;;;27.07;100.00
43683;BME280;29285;52.128;21.060;2023-08-06T10:36:01;98383.97;;;27.03;100.00
43683;BME280;29285;52.128;21.060;2023-08-06T10:41:03;98382.68;;;26.97;100.00
43683;BME280;29285;52.128;21.060;2023-08-06T10:46:28;98376.13;;;26.94;100.00
43683;BME280;29285;52.128;21.060;2023-08-06T10:51:30;98371.70;;;27.01;100.00
43683;BME280;29285;52.128;21.060;2023-08-06T10:56:39;98365.64;;;27.20;100.00
43683;BME280;29285;52.128;21.060;2023-08-06T11:01:41;98359.96;;;27.27;100.00
43683;BME280;29285;52.128;21.060;2023-08-06T11:06:43;98359.02;;;27.41;100.00
43683;BME280;29285;52.128;21.060;2023-08-06T11:11:45;98343.08;;;27.68;100.00
43683;BME280;29285;52.128;21.060;2023-08-06T11:16:46;98329.44;;;27.90;100.00
43683;BME280;29285;52.128;21.060;2023-08-06T11:21:48;98326.66;;;27.91;100.00
43683;BME280;29285;52.128;21.060;2023-08-06T11:26:49;98322.48;;;27.89;100.00
43683;BME280;29285;52.128;21.060;2023-08-06T11:31:51;98311.04;;;27.84;100.00
43683;BME280;29285;52.128;21.060;2023-08-06T11:36:53;98301.64;;;27.95;100.00
43683;BME280;29285;52.128;21.060;2023-08-06T11:41:55;98294.48;;;28.20;100.00
43683;BME280;29285;52.128;21.060;2023-08-06T11:46:56;98283.48;;;28.42;100.00
43683;BME280;29285;52.128;21.060;2023-08-06T11:51:58;98291.13;;;28.62;100.00
43683;BME280;29285;52.128;21.060;2023-08-06T11:57:00;98281.06;;;28.88;100.00
43683;BME280;29285;52.128;21.060;2023-08-06T12:02:04;98268.71;;;29.09;100.00
43683;BME280;29285;52.128;21.060;2023-08-06T12:07:09;98264.34;;;29.09;100.00
43683;BME280;29285;52.128;21.060;2023-08-06T12:12:11;98275.52;;;28.91;100.00
43683;BME280;29285;52.128;21.060;2023-08-06T12:17:12;98276.21;;;28.60;100.00
43683;BME280;29285;52.128;21.060;2023-08-06T12:22:14;98274.21;;;28.32;100.00
43683;BME280;29285;52.128;21.060;2023-08-06T12:27:16;98276.34;;;28.02;100.00
43683;BME280;29285;52.128;21.060;2023-08-06T12:32:18;98271.86;;;27.77;100.00
43683;BME280;29285;52.128;21.060;2023-08-06T12:37:21;98282.23;;;27.54;100.00
43683;BME280;29285;52.128;21.060;2023-08-06T12:42:22;98278.29;;;27.33;100.00
43683;BME280;29285;52.128;21.060;2023-08-06T12:47:25;98271.00;;;27.20;100.00
43683;BME280;29285;52.128;21.060;2023-08-06T12:52:27;98284.85;;;27.09;100.00
43683;BME280;29285;52.128;21.060;2023-08-06T12:57:29;98291.90;;;26.99;100.00
43683;BME280;29285;52.128;21.060;2023-08-06T13:02:31;98303.33;;;26.91;100.00
43683;BME280;29285;52.128;21.060;2023-08-06T13:07:32;98318.73;;;26.82;100.00
43683;BME280;29285;52.128;21.060;2023-08-06T13:12:34;98303.84;;;26.72;100.00
43683;BME280;29285;52.128;21.060;2023-08-06T13:17:36;98292.48;;;27.11;100.00
43683;BME280;29285;52.128;21.060;2023-08-06T13:22:37;98289.14;;;27.67;100.00
43683;BME280;29285;52.128;21.060;2023-08-06T13:27:39;98289.17;;;28.21;100.00
43683;BME280;29285;52.128;21.060;2023-08-06T13:32:41;98279.09;;;28.79;100.00
43683;BME280;29285;52.128;21.060;2023-08-06T13:37:42;98288.29;;;28.96;100.00
43683;BME280;29285;52.128;21.060;2023-08-06T13:42:44;98269.06;;;28.84;100.00
43683;BME280;29285;52.128;21.060;2023-08-06T13:47:46;98260.59;;;28.63;100.00
43683;BME280;29285;52.128;21.060;2023-08-06T13:52:47;98262.65;;;28.18;100.00
43683;BME280;29285;52.128;21.060;2023-08-06T13:57:49;98272.93;;;28.17;100.00
43683;BME280;29285;52.128;21.060;2023-08-06T14:02:51;98276.09;;;28.31;100.00
43683;BME280;29285;52.128;21.060;2023-08-06T14:07:53;98288.77;;;28.70;100.00
43683;BME280;29285;52.128;21.060;2023-08-06T14:12:54;98296.89;;;29.10;100.00
43683;BME280;29285;52.128;21.060;2023-08-06T14:17:56;98308.41;;;29.10;100.00
43683;BME280;29285;52.128;21.060;2023-08-06T14:22:57;98315.68;;;28.71;100.00
43683;BME280;29285;52.128;21.060;2023-08-06T14:27:59;98321.96;;;28.55;100.00
43683;BME280;29285;52.128;21.060;2023-08-06T14:33:01;98329.44;;;28.76;100.00
43683;BME280;29285;52.128;21.060;2023-08-06T14:38:04;98328.28;;;28.98;100.00
43683;BME280;29285;52.128;21.060;2023-08-06T14:43:06;98330.60;;;29.31;100.00
43683;BME280;29285;52.128;21.060;2023-08-06T14:48:07;98336.83;;;29.38;100.00
43683;BME280;29285;52.128;21.060;2023-08-06T14:53:09;98340.91;;;29.49;100.00
43683;BME280;29285;52.128;21.060;2023-08-06T14:58:13;98342.45;;;29.43;100.00
43683;BME280;29285;52.128;21.060;2023-08-06T15:03:15;98358.56;;;29.10;100.00
43683;BME280;29285;52.128;21.060;2023-08-06T15:08:17;98360.04;;;28.34;100.00
43683;BME280;29285;52.128;21.060;2023-08-06T15:13:19;98369.36;;;27.87;100.00
43683;BME280;29285;52.128;21.060;2023-08-06T15:18:21;98386.52;;;27.62;100.00
43683;BME280;29285;52.128;21.060;2023-08-06T15:23:22;98390.98;;;27.30;100.00
43683;BME280;29285;52.128;21.060;2023-08-06T15:28:24;98396.73;;;27.03;100.00
43683;BME280;29285;52.128;21.060;2023-08-06T15:33:26;98386.84;;;26.60;100.00
43683;BME280;29285;52.128;21.060;2023-08-06T15:38:27;98382.48;;;26.28;100.00
43683;BME280;29285;52.128;21.060;2023-08-06T15:43:29;98393.75;;;26.09;100.00
43683;BME280;29285;52.128;21.060;2023-08-06T15:48:31;98400.13;;;26.01;100.00
43683;BME280;29285;52.128;21.060;2023-08-06T15:53:33;98386.27;;;26.06;100.00
43683;BME280;29285;52.128;21.060;2023-08-06T15:58:35;98388.36;;;26.18;100.00
43683;BME280;29285;52.128;21.060;2023-08-06T16:03:37;98395.20;;;26.19;100.00
43683;BME280;29285;52.128;21.060;2023-08-06T16:08:40;98404.64;;;25.94;100.00
43683;BME280;29285;52.128;21.060;2023-08-06T16:13:42;98413.12;;;25.75;100.00
43683;BME280;29285;52.128;21.060;2023-08-06T16:18:44;98430.29;;;25.72;100.00
43683;BME280;29285;52.128;21.060;2023-08-06T16:23:45;98431.71;;;25.59;100.00
43683;BME280;29285;52.128;21.060;2023-08-06T16:28:47;98417.88;;;25.58;100.00
43683;BME280;29285;52.128;21.060;2023-08-06T16:33:49;98397.44;;;25.68;100.00
43683;BME280;29285;52.128;21.060;2023-08-06T16:38:51;98408.49;;;25.69;100.00
43683;BME280;29285;52.128;21.060;2023-08-06T16:43:54;98406.52;;;25.56;100.00
43683;BME280;29285;52.128;21.060;2023-08-06T16:48:56;98402.21;;;25.46;100.00
43683;BME280;29285;52.128;21.060;2023-08-06T16:53:58;98387.89;;;25.36;100.00
43683;BME280;29285;52.128;21.060;2023-08-06T16:59:00;98406.29;;;25.25;100.00
43683;BME280;29285;52.128;21.060;2023-08-06T17:04:02;98409.15;;;25.05;100.00
43683;BME280;29285;52.128;21.060;2023-08-06T17:09:03;98421.09;;;24.94;100.00
43683;BME280;29285;52.128;21.060;2023-08-06T17:14:05;98420.39;;;24.85;100.00
43683;BME280;29285;52.128;21.060;2023-08-06T17:19:07;98447.41;;;24.64;100.00
43683;BME280;29285;52.128;21.060;2023-08-06T17:24:09;98453.52;;;24.30;100.00
43683;BME280;29285;52.128;21.060;2023-08-06T17:29:10;98465.22;;;24.01;100.00
43683;BME280;29285;52.128;21.060;2023-08-06T17:34:12;98482.29;;;23.75;100.00
43683;BME280;29285;52.128;21.060;2023-08-06T17:39:15;98487.58;;;23.45;100.00
43683;BME280;29285;52.128;21.060;2023-08-06T17:44:16;98503.94;;;22.94;100.00
43683;BME280;29285;52.128;21.060;2023-08-06T17:49:18;98502.43;;;22.62;100.00
43683;BME280;29285;52.128;21.060;2023-08-06T17:54:21;98503.29;;;22.39;100.00
43683;BME280;29285;52.128;21.060;2023-08-06T17:59:22;98516.02;;;22.08;100.00
43683;BME280;29285;52.128;21.060;2023-08-06T18:04:24;98522.56;;;21.70;100.00
43683;BME280;29285;52.128;21.060;2023-08-06T18:09:26;98523.80;;;21.34;100.00
43683;BME280;29285;52.128;21.060;2023-08-06T18:14:27;98540.15;;;21.12;100.00
43683;BME280;29285;52.128;21.060;2023-08-06T18:19:30;98545.38;;;20.97;100.00
43683;BME280;29285;52.128;21.060;2023-08-06T18:24:32;98531.65;;;20.86;100.00
43683;BME280;29285;52.128;21.060;2023-08-06T18:29:33;98521.61;;;20.74;100.00
43683;BME280;29285;52.128;21.060;2023-08-06T18:34:37;98522.28;;;20.45;100.00
43683;BME280;29285;52.128;21.060;2023-08-06T18:39:38;98550.83;;;20.05;100.00
43683;BME280;29285;52.128;21.060;2023-08-06T18:44:44;98567.61;;;19.72;100.00
43683;BME280;29285;52.128;21.060;2023-08-06T18:49:46;98564.33;;;19.47;100.00
43683;BME280;29285;52.128;21.060;2023-08-06T18:54:47;98560.73;;;19.48;100.00
43683;BME280;29285;52.128;21.060;2023-08-06T18:59:50;98574.55;;;19.33;100.00
43683;BME280;29285;52.128;21.060;2023-08-06T19:04:54;98571.40;;;19.20;100.00
43683;BME280;29285;52.128;21.060;2023-08-06T19:09:56;98580.20;;;19.18;100.00
43683;BME280;29285;52.128;21.060;2023-08-06T19:14:57;98586.05;;;19.12;100.00
43683;BME280;29285;52.128;21.060;2023-08-06T19:19:59;98582.26;;;19.12;100.00
43683;BME280;29285;52.128;21.060;2023-08-06T19:25:00;98580.55;;;19.11;100.00
43683;BME280;29285;52.128;21.060;2023-08-06T19:30:03;98589.32;;;19.09;100.00
43683;BME280;29285;52.128;21.060;2023-08-06T19:35:05;98577.48;;;19.01;100.00
43683;BME280;29285;52.128;21.060;2023-08-06T19:40:07;98565.23;;;18.82;100.00
43683;BME280;29285;52.128;21.060;2023-08-06T19:45:10;98569.39;;;18.67;100.00
43683;BME280;29285;52.128;21.060;2023-08-06T19:50:12;98570.95;;;18.55;100.00
43683;BME280;29285;52.128;21.060;2023-08-06T19:55:14;98570.76;;;18.49;100.00
43683;BME280;29285;52.128;21.060;2023-08-06T20:00:16;98558.48;;;18.47;100.00
43683;BME280;29285;52.128;21.060;2023-08-06T20:05:18;98553.39;;;18.44;100.00
43683;BME280;29285;52.128;21.060;2023-08-06T20:10:19;98554.87;;;18.36;100.00
43683;BME280;29285;52.128;21.060;2023-08-06T20:15:21;98552.65;;;18.28;100.00
43683;BME280;29285;52.128;21.060;2023-08-06T20:20:23;98549.09;;;18.27;100.00
43683;BME280;29285;52.128;21.060;2023-08-06T20:25:24;98556.23;;;18.25;100.00
43683;BME280;29285;52.128;21.060;2023-08-06T20:30:26;98557.24;;;18.25;100.00
43683;BME280;29285;52.128;21.060;2023-08-06T20:35:28;98555.33;;;18.27;100.00
43683;BME280;29285;52.128;21.060;2023-08-06T20:40:29;98548.84;;;18.28;100.00
43683;BME280;29285;52.128;21.060;2023-08-06T20:45:31;98555.27;;;18.35;100.00
43683;BME280;29285;52.128;21.060;2023-08-06T20:50:33;98564.52;;;18.29;100.00
43683;BME280;29285;52.128;21.060;2023-08-06T20:55:35;98560.88;;;18.21;100.00
43683;BME280;29285;52.128;21.060;2023-08-06T21:00:36;98559.54;;;18.11;100.00
43683;BME280;29285;52.128;21.060;2023-08-06T21:05:39;98569.09;;;18.05;100.00
43683;BME280;29285;52.128;21.060;2023-08-06T21:10:40;98581.56;;;18.00;100.00
43683;BME280;29285;52.128;21.060;2023-08-06T21:15:42;98579.23;;;17.91;100.00
43683;BME280;29285;52.128;21.060;2023-08-06T21:20:43;98581.35;;;17.91;100.00
43683;BME280;29285;52.128;21.060;2023-08-06T21:25:49;98585.55;;;17.91;100.00
43683;BME280;29285;52.128;21.060;2023-08-06T21:31:02;98596.73;;;17.97;100.00
43683;BME280;29285;52.128;21.060;2023-08-06T21:36:05;98597.83;;;18.04;100.00
43683;BME280;29285;52.128;21.060;2023-08-06T21:41:11;98609.51;;;17.99;100.00
43683;BME280;29285;52.128;21.060;2023-08-06T21:46:18;98612.99;;;17.93;100.00
43683;BME280;29285;52.128;21.060;2023-08-06T21:51:21;98613.19;;;17.92;100.00
43683;BME280;29285;52.128;21.060;2023-08-06T21:56:23;98612.06;;;17.98;100.00
43683;BME280;29285;52.128;21.060;2023-08-06T22:01:24;98616.05;;;17.96;100.00
43683;BME280;29285;52.128;21.060;2023-08-06T22:06:26;98618.89;;;17.96;100.00
43683;BME280;29285;52.128;21.060;2023-08-06T22:11:28;98612.35;;;18.04;100.00
43683;BME280;29285;52.128;21.060;2023-08-06T22:16:29;98610.98;;;17.98;100.00
43683;BME280;29285;52.128;21.060;2023-08-06T22:21:31;98624.95;;;17.97;100.00
43683;BME280;29285;52.128;21.060;2023-08-06T22:26:33;98636.37;;;17.92;100.00
43683;BME280;29285;52.128;21.060;2023-08-06T22:31:34;98645.10;;;17.58;100.00
43683;BME280;29285;52.128;21.060;2023-08-06T22:36:36;98656.80;;;17.51;100.00
43683;BME280;29285;52.128;21.060;2023-08-06T22:41:38;98655.64;;;17.36;100.00
43683;BME280;29285;52.128;21.060;2023-08-06T22:46:39;98661.36;;;17.24;100.00
43683;BME280;29285;52.128;21.060;2023-08-06T22:51:41;98676.94;;;17.22;100.00
43683;BME280;29285;52.128;21.060;2023-08-06T22:56:43;98680.92;;;17.12;100.00
43683;BME280;29285;52.128;21.060;2023-08-06T23:01:44;98689.63;;;17.00;100.00
43683;BME280;29285;52.128;21.060;2023-08-06T23:06:46;98692.37;;;16.96;100.00
43683;BME280;29285;52.128;21.060;2023-08-06T23:11:48;98706.45;;;16.92;100.00
43683;BME280;29285;52.128;21.060;2023-08-06T23:16:49;98707.78;;;16.74;100.00
43683;BME280;29285;52.128;21.060;2023-08-06T23:21:51;98715.22;;;16.68;100.00
43683;BME280;29285;52.128;21.060;2023-08-06T23:26:53;98712.34;;;16.61;100.00
43683;BME280;29285;52.128;21.060;2023-08-06T23:31:55;98712.38;;;16.63;100.00
43683;BME280;29285;52.128;21.060;2023-08-06T23:36:57;98715.66;;;16.61;100.00
43683;BME280;29285;52.128;21.060;2023-08-06T23:41:58;98713.52;;;16.54;100.00
43683;BME280;29285;52.128;21.060;2023-08-06T23:47:00;98699.94;;;16.53;100.00
43683;BME280;29285;52.128;21.060;2023-08-06T23:52:02;98689.35;;;16.44;100.00
43683;BME280;29285;52.128;21.060;2023-08-06T23:57:04;98694.88;;;16.37;100.00
